createdAt,value
2017-08-07T00:01:35.280Z,4.00
2017-08-07T00:04:02.864Z,4.80
2017-08-07T00:06:30.419Z,4.53
2017-08-07T00:08:57.960Z,5.27
2017-08-07T00:11:25.527Z,4.83
2017-08-07T00:13:53.070Z,4.80
2017-08-07T00:16:20.553Z,4.40
2017-08-07T00:18:48.062Z,4.40
2017-08-07T00:21:15.557Z,4.23
2017-08-07T00:23:43.825Z,4.20
2017-08-07T00:26:11.377Z,4.90
2017-08-07T00:28:38.876Z,4.73
2017-08-07T00:31:06.361Z,4.90
2017-08-07T00:33:33.861Z,6.17
2017-08-07T00:36:01.341Z,5.83
2017-08-07T00:38:28.837Z,5.93
2017-08-07T00:40:56.321Z,6.00
2017-08-07T00:43:24.585Z,6.00
2017-08-07T00:45:52.069Z,5.67
2017-08-07T00:48:19.575Z,6.10
2017-08-07T00:50:47.060Z,6.60
2017-08-07T00:53:14.559Z,5.80
2017-08-07T00:55:42.045Z,6.60
2017-08-07T00:58:09.530Z,6.10
2017-08-07T01:00:37.041Z,6.17
2017-08-07T01:03:04.521Z,6.17
2017-08-07T01:05:32.903Z,6.20
2017-08-07T01:08:00.390Z,7.47
2017-08-07T01:10:27.988Z,5.30
2017-08-07T01:12:55.533Z,6.20
2017-08-07T01:15:23.037Z,7.10
2017-08-07T01:17:50.525Z,6.47
2017-08-07T01:20:18.089Z,5.33
2017-08-07T01:22:45.577Z,5.53
2017-08-07T01:25:13.145Z,5.70
2017-08-07T01:27:40.699Z,5.90
2017-08-07T01:30:08.204Z,5.97
2017-08-07T01:32:36.500Z,6.77
2017-08-07T01:35:04.021Z,5.73
2017-08-07T01:37:32.304Z,6.00
2017-08-07T01:39:59.959Z,5.80
2017-08-07T01:42:27.502Z,5.53
2017-08-07T01:44:54.986Z,5.90
2017-08-07T01:47:22.506Z,6.23
2017-08-07T01:49:49.986Z,6.80
2017-08-07T01:52:17.561Z,5.90
2017-08-07T01:54:45.233Z,6.47
2017-08-07T01:57:12.760Z,5.97
2017-08-07T01:59:40.240Z,6.53
2017-08-07T02:02:07.737Z,6.60
2017-08-07T02:04:35.227Z,7.10
2017-08-07T02:07:02.755Z,7.60
2017-08-07T02:09:30.289Z,6.23
2017-08-07T02:11:57.846Z,6.60
2017-08-07T02:14:25.360Z,6.20
2017-08-07T02:16:52.901Z,6.60
2017-08-07T02:19:20.396Z,6.30
2017-08-07T02:21:47.880Z,5.60
2017-08-07T02:24:15.433Z,6.20
2017-08-07T02:26:42.973Z,6.73
2017-08-07T02:29:10.477Z,6.90
2017-08-07T02:31:38.062Z,7.27
2017-08-07T02:34:05.560Z,7.30
2017-08-07T02:36:33.045Z,8.00
2017-08-07T02:39:00.595Z,6.90
2017-08-07T02:41:28.139Z,5.60
2017-08-07T02:43:55.654Z,6.93
2017-08-07T02:46:23.949Z,7.60
2017-08-07T02:48:51.449Z,7.07
2017-08-07T02:51:19.152Z,6.40
2017-08-07T02:53:46.657Z,7.53
2017-08-07T02:56:14.941Z,6.70
2017-08-07T02:58:42.450Z,7.03
2017-08-07T03:01:10.741Z,7.23
2017-08-07T03:03:38.415Z,6.83
2017-08-07T03:06:05.932Z,7.00
2017-08-07T03:08:33.480Z,7.83
2017-08-07T03:11:01.124Z,8.10
2017-08-07T03:13:28.625Z,7.50
2017-08-07T03:15:56.213Z,7.00
2017-08-07T03:18:23.766Z,7.77
2017-08-07T03:20:51.314Z,7.13
2017-08-07T03:23:18.849Z,6.77
2017-08-07T03:25:46.393Z,8.07
2017-08-07T03:28:14.062Z,7.83
2017-08-07T03:30:41.566Z,7.17
2017-08-07T03:33:09.121Z,7.57
2017-08-07T03:35:36.669Z,7.27
2017-08-07T03:38:04.153Z,7.97
2017-08-07T03:40:31.752Z,6.57
2017-08-07T03:42:59.296Z,7.43
2017-08-07T03:45:26.827Z,7.20
2017-08-07T03:47:55.084Z,6.67
2017-08-07T03:50:23.333Z,6.70
2017-08-07T03:52:50.944Z,6.97
2017-08-07T03:55:18.465Z,7.23
2017-08-07T03:57:46.003Z,7.40
2017-08-07T04:00:13.485Z,6.90
2017-08-07T04:02:40.993Z,7.30
2017-08-07T04:05:08.530Z,7.57
2017-08-07T04:07:36.035Z,6.90
2017-08-07T04:10:04.333Z,7.40
2017-08-07T04:12:31.880Z,7.40
2017-08-07T04:14:59.371Z,7.20
2017-08-07T04:17:26.892Z,7.10
2017-08-07T04:19:54.377Z,7.33
2017-08-07T04:22:22.650Z,8.00
2017-08-07T04:24:50.915Z,7.27
2017-08-07T04:27:18.573Z,7.97
2017-08-07T04:29:46.144Z,7.20
2017-08-07T04:32:13.649Z,7.43
2017-08-07T04:34:41.209Z,7.40
2017-08-07T04:37:08.702Z,7.43
2017-08-07T04:39:36.398Z,6.80
2017-08-07T04:42:03.951Z,7.30
2017-08-07T04:44:31.585Z,7.10
2017-08-07T04:46:59.082Z,6.57
2017-08-07T04:49:26.595Z,6.37
2017-08-07T04:51:54.117Z,7.17
2017-08-07T04:54:21.630Z,6.60
2017-08-07T04:56:49.925Z,7.70
2017-08-07T04:59:17.465Z,7.80
2017-08-07T05:01:45.011Z,7.37
2017-08-07T05:04:12.561Z,6.97
2017-08-07T05:06:40.097Z,7.67
2017-08-07T05:09:07.645Z,7.20
2017-08-07T05:11:35.190Z,6.57
2017-08-07T05:14:02.734Z,6.83
2017-08-07T05:16:30.282Z,6.30
2017-08-07T05:18:57.773Z,6.23
2017-08-07T05:21:25.285Z,7.07
2017-08-07T05:23:52.780Z,6.33
2017-08-07T05:26:21.045Z,6.07
2017-08-07T05:28:49.298Z,5.60
2017-08-07T05:31:17.689Z,6.40
2017-08-07T05:33:45.537Z,5.20
2017-08-07T05:36:13.084Z,5.50
2017-08-07T05:38:40.574Z,5.77
2017-08-07T05:41:08.081Z,4.90
2017-08-07T05:43:35.574Z,5.00
2017-08-07T05:46:03.118Z,5.20
2017-08-07T05:48:30.698Z,4.40
2017-08-07T05:50:58.186Z,4.80
2017-08-07T05:53:25.695Z,4.20
2017-08-07T05:55:53.191Z,4.47
2017-08-07T05:58:20.705Z,4.30
2017-08-07T06:00:48.198Z,4.93
2017-08-07T06:03:16.482Z,3.97
2017-08-07T06:05:43.989Z,4.40
2017-08-07T06:08:11.494Z,3.90
2017-08-07T06:10:38.985Z,3.87
2017-08-07T06:13:07.273Z,4.40
2017-08-07T06:15:34.760Z,4.20
2017-08-07T06:18:02.276Z,4.00
2017-08-07T06:20:29.801Z,4.10
2017-08-07T06:22:57.341Z,3.93
2017-08-07T06:25:24.851Z,4.03
2017-08-07T06:27:52.359Z,3.90
2017-08-07T06:30:19.875Z,3.87
2017-08-07T06:32:47.413Z,3.67
2017-08-07T06:35:14.957Z,3.50
2017-08-07T06:37:42.527Z,3.77
2017-08-07T06:40:15.657Z,4.10
2017-08-07T06:42:43.937Z,3.87
2017-08-07T06:45:11.489Z,3.47
2017-08-07T06:47:38.972Z,4.10
2017-08-07T06:50:06.565Z,3.73
2017-08-07T06:52:34.150Z,3.60
2017-08-07T06:55:01.757Z,4.00
2017-08-07T06:57:29.406Z,3.50
2017-08-07T06:59:56.916Z,3.40
2017-08-07T07:02:25.190Z,3.30
2017-08-07T07:04:53.478Z,3.00
2017-08-07T07:07:20.965Z,4.00
2017-08-07T07:09:48.473Z,3.90
2017-08-07T07:12:16.027Z,3.43
2017-08-07T07:14:43.549Z,3.83
2017-08-07T07:17:11.054Z,3.70
2017-08-07T07:19:39.313Z,3.20
2017-08-07T07:22:06.885Z,3.60
2017-08-07T07:24:34.441Z,3.50
2017-08-07T07:27:01.950Z,3.10
2017-08-07T07:29:30.293Z,3.07
2017-08-07T07:31:57.815Z,3.17
2017-08-07T07:34:25.351Z,3.43
2017-08-07T07:36:52.901Z,3.40
2017-08-07T07:39:20.418Z,3.13
2017-08-07T07:41:47.988Z,2.53
2017-08-07T07:44:15.473Z,2.83
2017-08-07T07:46:42.976Z,3.40
2017-08-07T07:49:10.493Z,2.70
2017-08-07T07:51:38.037Z,3.30
2017-08-07T07:54:05.550Z,3.47
2017-08-07T07:56:33.814Z,3.10
2017-08-07T07:59:02.106Z,3.23
2017-08-07T08:01:29.655Z,3.20
2017-08-07T08:03:57.166Z,2.80
2017-08-07T08:06:24.663Z,3.20
2017-08-07T08:08:52.269Z,2.97
2017-08-07T08:11:19.753Z,2.60
2017-08-07T08:13:47.265Z,3.60
2017-08-07T08:16:14.753Z,3.27
2017-08-07T08:18:42.349Z,3.00
2017-08-07T08:21:09.905Z,3.03
2017-08-07T08:23:37.505Z,3.07
2017-08-07T08:26:05.006Z,2.70
2017-08-07T08:28:32.546Z,2.70
2017-08-07T08:31:00.121Z,3.00
2017-08-07T08:33:27.722Z,3.20
2017-08-07T08:35:55.270Z,3.00
2017-08-07T08:38:22.913Z,3.17
2017-08-07T08:40:50.420Z,2.97
2017-08-07T08:43:18.834Z,3.17
2017-08-07T08:45:46.361Z,2.60
2017-08-07T08:48:13.906Z,3.27
2017-08-07T08:50:41.453Z,3.30
2017-08-07T08:53:08.956Z,2.77
2017-08-07T08:55:37.254Z,2.63
2017-08-07T08:58:04.741Z,2.60
2017-08-07T09:00:32.345Z,2.53
2017-08-07T09:02:59.897Z,2.00
2017-08-07T09:05:27.454Z,2.60
2017-08-07T09:07:54.977Z,2.50
2017-08-07T09:10:22.519Z,2.50
2017-08-07T09:12:50.041Z,2.53
2017-08-07T09:15:17.717Z,2.60
2017-08-07T09:17:45.226Z,2.50
2017-08-07T09:20:13.515Z,2.70
2017-08-07T09:22:41.025Z,2.20
2017-08-07T09:25:09.318Z,2.80
2017-08-07T09:27:36.969Z,2.70
2017-08-07T09:30:04.547Z,2.00
2017-08-07T09:32:32.071Z,2.80
2017-08-07T09:34:59.748Z,2.80
2017-08-07T09:37:27.255Z,2.80
2017-08-07T09:39:54.789Z,3.00
2017-08-07T09:42:22.329Z,3.00
2017-08-07T09:44:49.882Z,3.07
2017-08-07T09:47:17.441Z,2.90
2017-08-07T09:49:44.965Z,3.00
2017-08-07T09:52:12.505Z,2.87
2017-08-07T09:54:40.072Z,2.70
2017-08-07T09:57:07.815Z,2.37
2017-08-07T09:59:35.302Z,2.70
2017-08-07T10:02:02.852Z,2.97
2017-08-07T10:04:31.168Z,3.20
2017-08-07T10:06:58.670Z,3.27
2017-08-07T10:09:26.218Z,3.00
2017-08-07T10:11:53.757Z,4.13
2017-08-07T10:14:21.312Z,4.13
2017-08-07T10:16:48.882Z,3.23
2017-08-07T10:19:16.415Z,3.60
2017-08-07T10:21:43.959Z,3.07
2017-08-07T10:24:11.581Z,3.13
2017-08-07T10:26:39.225Z,2.90
2017-08-07T10:29:06.773Z,2.70
2017-08-07T10:31:34.353Z,2.90
2017-08-07T10:34:01.857Z,2.30
2017-08-07T10:36:29.346Z,3.10
2017-08-07T10:38:56.945Z,2.70
2017-08-07T10:41:24.507Z,2.90
2017-08-07T10:43:52.112Z,3.00
2017-08-07T10:46:20.445Z,2.53
2017-08-07T10:48:47.947Z,2.50
2017-08-07T10:51:15.567Z,2.77
2017-08-07T10:53:43.238Z,2.97
2017-08-07T10:56:10.887Z,2.40
2017-08-07T10:58:38.425Z,1.50
2017-08-07T11:01:05.933Z,2.40
2017-08-07T11:03:34.340Z,2.13
2017-08-07T11:06:01.850Z,2.57
2017-08-07T11:08:30.154Z,2.30
2017-08-07T11:10:57.682Z,2.10
2017-08-07T11:13:25.325Z,2.40
2017-08-07T11:15:52.849Z,3.00
2017-08-07T11:18:20.422Z,2.33
2017-08-07T11:20:48.041Z,2.10
2017-08-07T11:23:15.653Z,2.40
2017-08-07T11:25:43.482Z,2.63
2017-08-07T11:28:11.001Z,1.93
2017-08-07T11:30:38.550Z,2.70
2017-08-07T11:33:06.073Z,3.00
2017-08-07T11:35:33.660Z,2.90
2017-08-07T11:38:01.177Z,2.53
2017-08-07T11:40:28.658Z,2.60
2017-08-07T11:42:56.245Z,3.10
2017-08-07T11:45:24.526Z,2.70
2017-08-07T11:47:52.093Z,3.40
2017-08-07T11:50:19.697Z,2.60
2017-08-07T11:52:47.285Z,2.23
2017-08-07T11:55:15.128Z,2.40
2017-08-07T11:57:42.845Z,2.50
2017-08-07T12:00:10.373Z,2.60
2017-08-07T12:02:38.241Z,3.07
2017-08-07T12:05:05.760Z,2.57
2017-08-07T12:07:33.365Z,2.33
2017-08-07T12:10:00.893Z,2.10
2017-08-07T12:12:29.151Z,2.07
2017-08-07T12:14:57.437Z,1.80
2017-08-07T12:17:24.990Z,2.10
2017-08-07T12:19:52.566Z,3.23
2017-08-07T12:22:20.069Z,2.50
2017-08-07T12:24:48.066Z,2.37
2017-08-07T12:27:15.693Z,3.00
2017-08-07T12:29:43.330Z,2.87
2017-08-07T12:32:10.873Z,2.70
2017-08-07T12:34:38.415Z,2.53
2017-08-07T12:37:05.923Z,2.60
2017-08-07T12:39:34.352Z,2.90
2017-08-07T12:42:01.890Z,2.80
2017-08-07T12:44:29.412Z,2.87
2017-08-07T12:46:56.917Z,2.40
2017-08-07T12:49:25.218Z,2.47
2017-08-07T12:51:52.730Z,2.80
2017-08-07T12:54:21.133Z,2.53
2017-08-07T12:56:49.060Z,3.10
2017-08-07T12:59:17.183Z,3.37
2017-08-07T13:01:45.831Z,3.13
2017-08-07T13:04:13.325Z,2.50
2017-08-07T13:06:40.873Z,2.50
2017-08-07T13:09:08.362Z,2.93
2017-08-07T13:11:35.890Z,2.57
2017-08-07T13:14:03.526Z,2.60
2017-08-07T13:16:31.038Z,2.00
2017-08-07T13:18:59.326Z,2.70
2017-08-07T13:21:26.870Z,2.17
2017-08-07T13:23:54.411Z,2.10
2017-08-07T13:26:21.957Z,1.80
2017-08-07T13:28:49.522Z,1.50
2017-08-07T13:31:17.072Z,1.70
2017-08-07T13:33:44.777Z,1.90
2017-08-07T13:36:12.317Z,1.70
2017-08-07T13:38:40.601Z,1.80
2017-08-07T13:41:08.101Z,2.00
2017-08-07T13:43:36.397Z,2.07
2017-08-07T13:46:04.075Z,1.63
2017-08-07T13:48:31.718Z,2.20
2017-08-07T13:50:59.205Z,2.33
2017-08-07T13:53:27.478Z,2.10
2017-08-07T13:55:55.730Z,2.37
2017-08-07T13:58:24.133Z,2.50
2017-08-07T14:00:51.645Z,2.60
2017-08-07T14:03:19.182Z,2.50
2017-08-07T14:05:46.741Z,3.43
2017-08-07T14:08:15.085Z,2.77
2017-08-07T14:10:43.437Z,2.80
2017-08-07T14:13:11.025Z,3.10
2017-08-07T14:15:38.531Z,3.20
2017-08-07T14:18:06.139Z,2.90
2017-08-07T14:20:33.664Z,2.60
2017-08-07T14:23:01.165Z,2.63
2017-08-07T14:25:28.669Z,2.87
2017-08-07T14:27:56.185Z,3.30
2017-08-07T14:30:23.756Z,2.77
2017-08-07T14:32:51.274Z,2.77
2017-08-07T14:35:18.869Z,3.17
2017-08-07T14:37:46.489Z,2.80
2017-08-07T14:40:14.117Z,3.27
2017-08-07T14:42:42.460Z,3.50
2017-08-07T14:45:10.023Z,3.67
2017-08-07T14:47:37.571Z,3.17
2017-08-07T14:50:05.131Z,3.17
2017-08-07T14:52:32.660Z,2.90
2017-08-07T14:55:00.196Z,3.10
2017-08-07T14:57:27.701Z,3.20
2017-08-07T14:59:55.283Z,3.00
2017-08-07T15:02:22.785Z,3.80
2017-08-07T15:04:50.311Z,4.03
2017-08-07T15:07:18.042Z,4.17
2017-08-07T15:09:45.917Z,4.90
2017-08-07T15:12:14.894Z,3.67
2017-08-07T15:14:43.216Z,3.90
2017-08-07T15:17:10.741Z,3.83
2017-08-07T15:19:38.298Z,3.97
2017-08-07T15:22:05.853Z,4.63
2017-08-07T15:24:33.389Z,4.23
2017-08-07T15:27:00.934Z,4.00
2017-08-07T15:29:28.474Z,4.00
2017-08-07T15:31:55.965Z,4.00
2017-08-07T15:34:23.584Z,3.70
2017-08-07T15:36:51.128Z,4.03
2017-08-07T15:39:18.837Z,4.00
2017-08-07T15:41:47.153Z,3.50
2017-08-07T15:44:15.006Z,3.57
2017-08-07T15:46:42.505Z,3.77
2017-08-07T15:49:10.070Z,4.90
2017-08-07T15:51:37.641Z,4.00
2017-08-07T15:54:05.257Z,3.80
2017-08-07T15:56:32.789Z,3.53
2017-08-07T15:59:00.314Z,4.20
2017-08-07T16:01:28.621Z,3.10
2017-08-07T16:03:56.141Z,3.70
2017-08-07T16:06:23.685Z,3.60
2017-08-07T16:08:51.268Z,3.20
2017-08-07T16:11:19.106Z,3.67
2017-08-07T16:13:46.874Z,3.57
2017-08-07T16:16:14.712Z,3.30
2017-08-07T16:18:42.245Z,2.90
2017-08-07T16:21:09.768Z,2.73
2017-08-07T16:23:37.548Z,4.47
2017-08-07T16:26:05.169Z,3.37
2017-08-07T16:28:32.706Z,3.23
2017-08-07T16:31:00.249Z,3.50
2017-08-07T16:33:27.793Z,3.10
2017-08-07T16:35:55.359Z,3.20
2017-08-07T16:38:22.875Z,2.80
2017-08-07T16:40:50.443Z,3.00
2017-08-07T16:43:18.079Z,3.00
2017-08-07T16:45:45.730Z,2.67
2017-08-07T16:48:13.262Z,3.47
2017-08-07T16:50:40.812Z,2.83
2017-08-07T16:53:08.370Z,3.50
2017-08-07T16:55:35.889Z,3.80
2017-08-07T16:58:03.458Z,2.70
2017-08-07T17:00:31.009Z,3.33
2017-08-07T17:02:58.624Z,3.10
2017-08-07T17:05:26.177Z,3.33
2017-08-07T17:07:53.714Z,3.77
2017-08-07T17:10:21.225Z,3.27
2017-08-07T17:12:49.593Z,3.60
2017-08-07T17:15:17.865Z,2.80
2017-08-07T17:17:45.462Z,3.30
2017-08-07T17:20:13.078Z,2.83
2017-08-07T17:22:40.641Z,3.60
2017-08-07T17:25:08.146Z,2.83
2017-08-07T17:27:35.709Z,3.40
2017-08-07T17:30:03.234Z,3.70
2017-08-07T17:32:30.793Z,3.00
2017-08-07T17:34:58.338Z,3.13
2017-08-07T17:37:25.887Z,2.83
2017-08-07T17:39:53.389Z,3.07
2017-08-07T17:42:20.876Z,3.10
2017-08-07T17:44:48.437Z,3.23
2017-08-07T17:47:15.993Z,3.30
2017-08-07T17:49:44.096Z,2.90
2017-08-07T17:52:11.662Z,3.00
2017-08-07T17:54:39.157Z,3.70
2017-08-07T17:57:06.744Z,3.97
2017-08-07T17:59:34.317Z,3.50
2017-08-07T18:02:02.000Z,3.33
2017-08-07T18:04:29.522Z,3.50
2017-08-07T18:06:57.021Z,3.73
2017-08-07T18:09:24.609Z,3.30
2017-08-07T18:11:52.153Z,3.30
2017-08-07T18:14:19.637Z,3.30
2017-08-07T18:16:47.237Z,3.67
2017-08-07T18:19:14.890Z,3.57
2017-08-07T18:21:42.409Z,4.90
2017-08-07T18:24:09.977Z,3.80
2017-08-07T18:26:37.464Z,3.87
2017-08-07T18:29:05.087Z,4.37
2017-08-07T18:31:32.590Z,3.77
2017-08-07T18:34:00.153Z,3.80
2017-08-07T18:36:27.693Z,3.83
2017-08-07T18:38:55.239Z,4.00
2017-08-07T18:41:22.730Z,4.33
2017-08-07T18:43:50.433Z,4.00
2017-08-07T18:46:17.974Z,4.50
2017-08-07T18:48:45.504Z,4.03
2017-08-07T18:51:13.014Z,4.10
2017-08-07T18:53:40.524Z,3.93
2017-08-07T18:56:08.050Z,4.20
2017-08-07T18:58:35.669Z,3.77
2017-08-07T19:01:03.162Z,4.50
2017-08-07T19:03:30.861Z,3.73
2017-08-07T19:05:58.419Z,3.90
2017-08-07T19:08:25.949Z,3.60
2017-08-07T19:10:53.493Z,4.10
2017-08-07T19:13:20.981Z,4.20
2017-08-07T19:15:48.578Z,3.97
2017-08-07T19:18:16.077Z,4.50
2017-08-07T19:20:43.589Z,4.30
2017-08-07T19:23:11.105Z,4.60
2017-08-07T19:25:38.958Z,4.27
2017-08-07T19:28:06.449Z,3.73
2017-08-07T19:30:34.047Z,3.90
2017-08-07T19:33:01.590Z,4.20
2017-08-07T19:35:29.131Z,4.53
2017-08-07T19:37:56.673Z,3.97
2017-08-07T19:40:24.199Z,4.00
2017-08-07T19:42:51.865Z,4.47
2017-08-07T19:45:19.353Z,3.80
2017-08-07T19:47:46.874Z,4.17
2017-08-07T19:50:14.385Z,3.90
2017-08-07T19:52:42.042Z,3.90
2017-08-07T19:55:09.529Z,4.37
2017-08-07T19:57:37.041Z,3.63
2017-08-07T20:00:04.578Z,3.40
2017-08-07T20:02:32.109Z,3.93
2017-08-07T20:04:59.640Z,4.47
2017-08-07T20:07:27.314Z,4.00
2017-08-07T20:09:54.908Z,3.80
2017-08-07T20:12:22.449Z,3.37
2017-08-07T20:14:49.937Z,4.33
2017-08-07T20:17:17.478Z,3.73
2017-08-07T20:19:45.151Z,4.00
2017-08-07T20:22:12.646Z,4.37
2017-08-07T20:24:40.167Z,4.27
2017-08-07T20:27:07.653Z,3.87
2017-08-07T20:29:35.197Z,3.70
2017-08-07T20:32:02.746Z,3.87
2017-08-07T20:34:30.301Z,4.00
2017-08-07T20:36:57.890Z,4.20
2017-08-07T20:39:25.574Z,3.90
2017-08-07T20:41:53.097Z,3.73
2017-08-07T20:44:20.638Z,4.57
2017-08-07T20:46:48.905Z,4.30
2017-08-07T20:49:17.225Z,3.87
2017-08-07T20:51:44.741Z,4.10
2017-08-07T20:54:12.301Z,3.90
2017-08-07T20:56:39.821Z,4.60
2017-08-07T20:59:07.310Z,3.80
2017-08-07T21:01:34.813Z,3.90
2017-08-07T21:04:02.358Z,3.87
2017-08-07T21:06:29.913Z,4.20
2017-08-07T21:08:57.769Z,3.70
2017-08-07T21:11:25.558Z,4.27
2017-08-07T21:13:53.824Z,4.30
2017-08-07T21:16:22.093Z,3.70
2017-08-07T21:18:50.348Z,4.17
2017-08-07T21:21:18.646Z,5.20
2017-08-07T21:23:46.146Z,4.30
2017-08-07T21:26:13.674Z,4.67
2017-08-07T21:28:41.162Z,6.10
2017-08-07T21:31:08.717Z,4.70
2017-08-07T21:33:36.263Z,4.70
2017-08-07T21:36:03.801Z,4.80
2017-08-07T21:38:31.348Z,5.50
2017-08-07T21:40:58.878Z,4.73
2017-08-07T21:43:26.468Z,4.80
2017-08-07T21:45:54.173Z,5.50
2017-08-07T21:48:21.689Z,5.03
2017-08-07T21:50:49.272Z,4.70
2017-08-07T21:53:16.822Z,4.87
2017-08-07T21:55:44.533Z,4.57
2017-08-07T21:58:12.809Z,4.60
2017-08-07T22:00:40.326Z,4.60
2017-08-07T22:03:07.850Z,4.67
2017-08-07T22:05:35.349Z,4.23
2017-08-07T22:08:02.842Z,6.23
2017-08-07T22:10:30.375Z,4.60
2017-08-07T22:12:57.962Z,5.20
2017-08-07T22:15:26.323Z,4.70
2017-08-07T22:17:53.830Z,4.50
2017-08-07T22:20:21.434Z,4.60
2017-08-07T22:22:48.931Z,4.40
2017-08-07T22:25:16.437Z,4.90
2017-08-07T22:27:43.973Z,4.60
2017-08-07T22:30:11.511Z,4.07
2017-08-07T22:32:39.057Z,4.73
2017-08-07T22:35:06.726Z,5.13
2017-08-07T22:37:34.229Z,4.80
2017-08-07T22:40:01.725Z,4.77
2017-08-07T22:42:29.298Z,4.70
2017-08-07T22:44:57.220Z,4.70
2017-08-07T22:47:25.024Z,5.30
2017-08-07T22:49:52.530Z,4.87
2017-08-07T22:52:20.032Z,4.60
2017-08-07T22:54:47.665Z,4.73
2017-08-07T22:57:15.188Z,5.13
2017-08-07T22:59:43.441Z,5.23
2017-08-07T23:02:11.721Z,5.20
2017-08-07T23:04:39.278Z,4.73
2017-08-07T23:07:06.765Z,5.50
2017-08-07T23:09:34.270Z,5.10
2017-08-07T23:12:01.805Z,5.40
2017-08-07T23:14:29.454Z,6.67
2017-08-07T23:16:57.123Z,4.90
2017-08-07T23:19:24.677Z,5.27
2017-08-07T23:21:52.177Z,5.97
2017-08-07T23:24:19.693Z,5.77
2017-08-07T23:26:47.178Z,5.53
2017-08-07T23:29:14.819Z,5.53
2017-08-07T23:31:42.378Z,5.07
2017-08-07T23:34:09.909Z,5.97
2017-08-07T23:36:37.494Z,5.00
2017-08-07T23:39:04.977Z,5.23
2017-08-07T23:41:33.269Z,5.77
2017-08-07T23:44:00.762Z,5.40
2017-08-07T23:46:29.047Z,5.63
2017-08-07T23:48:56.608Z,5.23
2017-08-07T23:51:24.146Z,5.13
2017-08-07T23:53:51.693Z,5.83
2017-08-07T23:56:19.195Z,5.57
2017-08-07T23:58:46.681Z,6.13
